createdAt,value
2023-01-18T00:01:55.802Z,1.35
2023-01-18T00:04:44.506Z,1.02
2023-01-18T00:07:33.103Z,1.08
2023-01-18T00:10:22.436Z,0.75
2023-01-18T00:13:11.279Z,1.02
2023-01-18T00:16:04.193Z,1.17
2023-01-18T00:18:55.664Z,0.93
2023-01-18T00:21:44.626Z,0.68
2023-01-18T00:24:33.146Z,1.25
2023-01-18T00:27:21.723Z,0.70
2023-01-18T00:30:12.082Z,0.60
2023-01-18T00:33:01.230Z,0.80
2023-01-18T00:35:58.118Z,0.80
2023-01-18T00:38:51.654Z,0.70
2023-01-18T00:42:00.266Z,0.90
2023-01-18T00:44:47.897Z,0.80
2023-01-18T00:47:36.490Z,0.82
2023-01-18T00:50:25.034Z,0.50
2023-01-18T00:53:15.009Z,0.70
2023-01-18T00:56:03.570Z,0.90
2023-01-18T00:58:52.278Z,0.77
2023-01-18T01:01:41.026Z,0.70
2023-01-18T01:04:47.244Z,0.60
2023-01-18T01:07:35.869Z,0.50
2023-01-18T01:10:25.893Z,0.40
2023-01-18T01:13:32.369Z,0.43
2023-01-18T01:16:38.832Z,0.45
2023-01-18T01:19:45.271Z,0.40
2023-01-18T01:22:51.616Z,0.60
2023-01-18T01:25:59.557Z,0.50
2023-01-18T01:28:52.777Z,0.50
2023-01-18T01:31:44.227Z,0.43
2023-01-18T01:34:33.027Z,0.55
2023-01-18T01:37:21.626Z,0.40
2023-01-18T01:40:11.717Z,0.30
2023-01-18T01:43:01.730Z,0.50
2023-01-18T01:45:50.551Z,0.80
2023-01-18T01:48:39.315Z,0.80
2023-01-18T01:51:28.415Z,0.68
2023-01-18T01:54:18.743Z,0.60
2023-01-18T01:57:11.104Z,0.40
2023-01-18T02:00:03.310Z,0.40
2023-01-18T02:02:55.803Z,0.57
2023-01-18T02:05:46.258Z,0.47
2023-01-18T02:08:34.885Z,0.32
2023-01-18T02:11:23.863Z,0.60
2023-01-18T02:14:15.729Z,0.50
2023-01-18T02:17:23.454Z,0.50
2023-01-18T02:20:56.541Z,0.52
2023-01-18T02:24:10.531Z,0.50
2023-01-18T02:27:02.131Z,0.20
2023-01-18T02:30:10.291Z,0.40
2023-01-18T02:33:05.310Z,0.50
2023-01-18T02:35:57.034Z,0.40
2023-01-18T02:38:47.269Z,0.40
2023-01-18T02:41:59.749Z,0.32
2023-01-18T02:45:06.435Z,0.40
2023-01-18T02:47:57.184Z,0.38
2023-01-18T02:50:45.838Z,0.40
2023-01-18T02:53:38.061Z,0.20
2023-01-18T02:56:30.300Z,0.30
2023-01-18T02:59:22.758Z,0.35
2023-01-18T03:02:13.829Z,0.40
2023-01-18T03:05:04.297Z,0.30
2023-01-18T03:07:56.673Z,0.40
2023-01-18T03:10:51.637Z,0.40
2023-01-18T03:13:58.826Z,0.20
2023-01-18T03:17:00.423Z,0.30
2023-01-18T03:20:06.362Z,0.45
2023-01-18T03:23:21.386Z,0.20
2023-01-18T03:26:11.981Z,0.30
2023-01-18T03:29:20.359Z,0.65
2023-01-18T03:32:30.139Z,0.60
2023-01-18T03:35:20.098Z,0.30
2023-01-18T03:38:10.568Z,0.20
2023-01-18T03:41:00.689Z,0.38
2023-01-18T03:43:50.486Z,0.30
2023-01-18T03:46:40.035Z,0.40
2023-01-18T03:49:28.773Z,0.40
2023-01-18T03:52:19.450Z,0.30
2023-01-18T03:55:13.354Z,0.30
2023-01-18T03:58:04.256Z,0.35
2023-01-18T04:00:54.080Z,0.40
2023-01-18T04:03:42.708Z,0.50
2023-01-18T04:06:33.312Z,0.30
2023-01-18T04:09:22.083Z,0.40
2023-01-18T04:12:12.089Z,0.20
2023-01-18T04:15:00.773Z,0.30
2023-01-18T04:17:53.039Z,0.10
2023-01-18T04:20:41.880Z,0.55
2023-01-18T04:23:30.492Z,0.20
2023-01-18T04:26:19.318Z,0.20
2023-01-18T04:29:09.667Z,0.30
2023-01-18T04:31:58.338Z,0.20
2023-01-18T04:34:46.975Z,0.30
2023-01-18T04:37:38.233Z,0.50
2023-01-18T04:40:27.006Z,0.28
2023-01-18T04:43:15.681Z,0.25
2023-01-18T04:46:05.956Z,0.20
2023-01-18T04:48:54.648Z,0.32
2023-01-18T04:51:44.144Z,0.20
2023-01-18T04:54:32.885Z,0.20
2023-01-18T04:57:21.524Z,0.20
2023-01-18T05:00:11.428Z,0.22
2023-01-18T05:03:01.599Z,0.20
2023-01-18T05:05:50.360Z,0.35
2023-01-18T05:08:40.907Z,0.20
2023-01-18T05:11:29.649Z,0.40
2023-01-18T05:14:18.226Z,0.35
2023-01-18T05:17:07.365Z,0.30
2023-01-18T05:19:57.339Z,0.47
2023-01-18T05:22:46.139Z,0.20
2023-01-18T05:25:37.020Z,0.35
2023-01-18T05:28:29.721Z,0.50
2023-01-18T05:31:21.158Z,0.50
2023-01-18T05:34:09.929Z,0.22
2023-01-18T05:36:59.941Z,0.70
2023-01-18T05:39:48.564Z,0.43
2023-01-18T05:42:37.292Z,0.40
2023-01-18T05:45:25.927Z,0.40
2023-01-18T05:48:16.396Z,0.40
2023-01-18T05:51:09.692Z,0.52
2023-01-18T05:53:59.717Z,0.63
2023-01-18T05:56:48.524Z,0.40
2023-01-18T05:59:37.136Z,0.52
2023-01-18T06:02:26.148Z,0.32
2023-01-18T06:05:15.717Z,1.05
2023-01-18T06:08:04.363Z,0.35
2023-01-18T06:10:58.439Z,0.40
2023-01-18T06:13:47.039Z,0.50
2023-01-18T06:16:35.858Z,0.60
2023-01-18T06:19:24.589Z,0.55
2023-01-18T06:22:13.271Z,0.20
2023-01-18T06:25:02.135Z,0.30
2023-01-18T06:27:52.441Z,0.20
2023-01-18T06:30:42.805Z,0.40
2023-01-18T06:33:31.671Z,0.35
2023-01-18T06:36:20.487Z,0.47
2023-01-18T06:39:09.378Z,0.40
2023-01-18T06:41:58.351Z,0.30
2023-01-18T06:44:48.504Z,0.20
2023-01-18T06:47:37.266Z,0.20
2023-01-18T06:50:26.077Z,0.30
2023-01-18T06:53:14.778Z,0.30
2023-01-18T06:56:03.554Z,0.15
2023-01-18T06:58:52.321Z,0.20
2023-01-18T07:01:42.615Z,0.60
2023-01-18T07:04:44.241Z,0.20
2023-01-18T07:07:33.595Z,0.30
2023-01-18T07:10:22.239Z,0.32
2023-01-18T07:13:10.852Z,0.28
2023-01-18T07:16:02.090Z,0.25
2023-01-18T07:18:52.072Z,0.35
2023-01-18T07:21:43.144Z,0.80
2023-01-18T07:24:32.464Z,0.70
2023-01-18T07:27:21.056Z,0.68
2023-01-18T07:30:12.402Z,0.52
2023-01-18T07:33:01.394Z,0.90
2023-01-18T07:35:53.426Z,0.90
2023-01-18T07:38:42.600Z,0.75
2023-01-18T07:41:31.438Z,0.50
2023-01-18T07:44:20.072Z,1.05
2023-01-18T07:47:08.986Z,0.75
2023-01-18T07:49:57.520Z,1.17
2023-01-18T07:52:47.618Z,1.20
2023-01-18T07:55:38.857Z,0.82
2023-01-18T07:58:27.561Z,0.68
2023-01-18T08:01:19.922Z,1.10
2023-01-18T08:04:09.666Z,0.80
2023-01-18T08:06:59.220Z,0.90
2023-01-18T08:09:49.395Z,1.40
2023-01-18T08:12:38.097Z,0.95
2023-01-18T08:15:26.777Z,0.77
2023-01-18T08:18:15.557Z,0.80
2023-01-18T08:21:04.277Z,1.17
2023-01-18T08:23:55.089Z,1.00
2023-01-18T08:26:45.190Z,0.65
2023-01-18T08:29:33.809Z,0.70
2023-01-18T08:32:22.648Z,1.00
2023-01-18T08:35:11.386Z,0.70
2023-01-18T08:38:00.939Z,0.70
2023-01-18T08:40:49.568Z,0.68
2023-01-18T08:43:39.585Z,0.93
2023-01-18T08:46:28.348Z,0.75
2023-01-18T08:49:17.069Z,0.47
2023-01-18T08:52:06.808Z,0.52
2023-01-18T08:54:55.463Z,0.70
2023-01-18T08:57:44.061Z,0.60
2023-01-18T09:00:34.413Z,0.43
2023-01-18T09:03:23.662Z,0.75
2023-01-18T09:06:13.164Z,0.38
2023-01-18T09:09:02.157Z,0.85
2023-01-18T09:11:52.480Z,1.00
2023-01-18T09:14:41.180Z,0.52
2023-01-18T09:17:31.210Z,0.40
2023-01-18T09:20:19.927Z,0.60
2023-01-18T09:23:09.404Z,0.60
2023-01-18T09:26:05.424Z,0.75
2023-01-18T09:28:54.534Z,0.30
2023-01-18T09:31:43.272Z,0.85
2023-01-18T09:34:33.846Z,0.40
2023-01-18T09:37:22.630Z,0.35
2023-01-18T09:40:16.910Z,0.30
2023-01-18T09:43:05.769Z,0.60
2023-01-18T09:45:55.571Z,0.40
2023-01-18T09:48:45.371Z,0.20
2023-01-18T09:51:41.030Z,0.70
2023-01-18T09:54:40.039Z,0.52
2023-01-18T09:57:38.946Z,0.52
2023-01-18T10:00:29.377Z,0.40
2023-01-18T10:03:21.606Z,0.40
2023-01-18T10:06:15.536Z,0.40
2023-01-18T10:09:07.415Z,0.30
2023-01-18T10:12:00.163Z,0.10
2023-01-18T10:14:51.094Z,0.30
2023-01-18T10:17:42.225Z,0.38
2023-01-18T10:20:37.990Z,0.45
2023-01-18T10:23:32.074Z,0.25
2023-01-18T10:26:28.925Z,0.30
2023-01-18T10:29:22.235Z,0.47
2023-01-18T10:32:12.868Z,0.20
2023-01-18T10:35:03.315Z,0.38
2023-01-18T10:37:52.666Z,0.30
2023-01-18T10:40:41.722Z,0.40
2023-01-18T10:43:33.070Z,0.30
2023-01-18T10:46:21.716Z,0.35
2023-01-18T10:49:38.990Z,0.43
2023-01-18T10:52:29.285Z,0.10
2023-01-18T10:55:19.472Z,0.20
2023-01-18T10:58:14.085Z,0.10
2023-01-18T11:01:04.511Z,0.20
2023-01-18T11:03:55.522Z,0.22
2023-01-18T11:06:50.428Z,0.17
2023-01-18T11:09:42.870Z,0.30
2023-01-18T11:12:38.198Z,0.10
2023-01-18T11:15:31.077Z,0.50
2023-01-18T11:18:19.768Z,0.20
2023-01-18T11:21:12.265Z,0.22
2023-01-18T11:24:07.687Z,0.15
2023-01-18T11:27:00.184Z,0.10
2023-01-18T11:29:48.810Z,0.20
2023-01-18T11:32:38.623Z,0.20
2023-01-18T11:35:30.928Z,0.20
2023-01-18T11:38:20.713Z,0.30
2023-01-18T11:41:17.187Z,0.22
2023-01-18T11:44:13.243Z,0.20
2023-01-18T11:47:03.988Z,0.20
2023-01-18T11:49:58.890Z,0.10
2023-01-18T11:52:52.391Z,0.13
2023-01-18T11:55:47.592Z,0.45
2023-01-18T11:58:38.127Z,0.20
2023-01-18T12:01:43.512Z,0.10
2023-01-18T12:04:41.524Z,0.10
2023-01-18T12:07:41.078Z,0.20
2023-01-18T12:10:35.619Z,0.22
2023-01-18T12:13:39.657Z,0.20
2023-01-18T12:16:40.895Z,0.20
2023-01-18T12:19:53.501Z,0.30
2023-01-18T12:23:08.600Z,0.20
2023-01-18T12:26:12.616Z,0.17
2023-01-18T12:29:16.558Z,0.20
2023-01-18T12:32:13.138Z,0.10
2023-01-18T12:35:23.333Z,0.08
2023-01-18T12:38:18.806Z,0.10
2023-01-18T12:41:24.621Z,0.20
2023-01-18T12:44:25.721Z,0.20
2023-01-18T12:47:33.195Z,0.10
2023-01-18T12:50:25.482Z,0.10
2023-01-18T12:53:17.161Z,0.20
2023-01-18T12:56:11.925Z,0.30
2023-01-18T12:59:04.545Z,0.10
2023-01-18T13:01:56.105Z,0.20
2023-01-18T13:04:48.723Z,0.10
2023-01-18T13:07:41.350Z,0.20
2023-01-18T13:10:30.652Z,0.15
2023-01-18T13:13:21.808Z,0.10
2023-01-18T13:16:39.481Z,0.10
2023-01-18T13:19:34.880Z,0.20
2023-01-18T13:22:28.629Z,0.20
2023-01-18T13:25:39.432Z,0.10
2023-01-18T13:28:28.648Z,0.00
2023-01-18T13:31:17.234Z,0.20
2023-01-18T13:34:07.995Z,0.00
2023-01-18T13:37:13.357Z,0.13
2023-01-18T13:40:02.756Z,0.10
2023-01-18T13:42:51.420Z,0.20
2023-01-18T13:46:05.768Z,0.20
2023-01-18T13:48:56.397Z,0.10
2023-01-18T13:51:54.662Z,0.10
2023-01-18T13:55:26.033Z,0.10
2023-01-18T13:58:20.124Z,0.10
2023-01-18T14:01:09.683Z,0.10
2023-01-18T14:03:58.711Z,0.10
2023-01-18T14:06:48.254Z,0.10
2023-01-18T14:09:40.123Z,0.10
2023-01-18T14:12:51.558Z,0.10
2023-01-18T14:15:51.234Z,0.10
2023-01-18T14:18:42.190Z,0.10
2023-01-18T14:21:40.734Z,0.20
2023-01-18T14:24:47.360Z,0.20
2023-01-18T14:27:38.880Z,0.10
2023-01-18T14:30:30.888Z,0.45
2023-01-18T14:33:23.305Z,1.40
2023-01-18T14:36:21.410Z,1.27
2023-01-18T14:39:13.253Z,1.88
2023-01-18T14:42:03.951Z,1.45
2023-01-18T14:44:58.147Z,6.05
2023-01-18T14:47:49.653Z,7.35
2023-01-18T14:50:41.385Z,2.60
2023-01-18T14:53:31.799Z,3.28
2023-01-18T14:56:22.858Z,4.78
2023-01-18T14:59:20.605Z,4.90
2023-01-18T15:02:22.499Z,3.45
2023-01-18T15:05:13.313Z,3.55
2023-01-18T15:08:03.364Z,4.22
2023-01-18T15:10:52.216Z,11.90
2023-01-18T15:13:49.078Z,6.57
2023-01-18T15:16:37.969Z,4.82
2023-01-18T15:19:30.514Z,4.53
2023-01-18T15:22:22.608Z,3.50
2023-01-18T15:25:22.953Z,3.45
2023-01-18T15:28:23.292Z,3.22
2023-01-18T15:31:15.256Z,4.07
2023-01-18T15:34:04.120Z,2.97
2023-01-18T15:36:52.989Z,3.22
2023-01-18T15:39:51.517Z,2.58
2023-01-18T15:42:43.983Z,2.70
2023-01-18T15:45:34.426Z,2.83
2023-01-18T15:48:23.941Z,2.28
2023-01-18T15:51:12.705Z,2.45
2023-01-18T15:54:01.395Z,2.30
2023-01-18T15:56:51.725Z,2.63
2023-01-18T15:59:42.820Z,2.40
2023-01-18T16:02:31.942Z,2.60
2023-01-18T16:05:25.477Z,2.38
2023-01-18T16:08:20.188Z,1.80
2023-01-18T16:11:28.824Z,2.00
2023-01-18T16:14:25.216Z,1.65
2023-01-18T16:17:16.363Z,1.80
2023-01-18T16:20:16.379Z,1.85
2023-01-18T16:23:09.092Z,1.75
2023-01-18T16:26:02.004Z,2.00
2023-01-18T16:28:52.423Z,2.03
2023-01-18T16:31:44.309Z,1.33
2023-01-18T16:34:32.986Z,1.27
2023-01-18T16:37:22.256Z,1.58
2023-01-18T16:40:14.285Z,1.42
2023-01-18T16:43:04.936Z,1.73
2023-01-18T16:45:54.471Z,1.35
2023-01-18T16:48:44.542Z,1.98
2023-01-18T16:51:33.222Z,1.17
2023-01-18T16:54:22.094Z,1.15
2023-01-18T16:57:23.662Z,2.60
2023-01-18T17:00:19.115Z,1.33
2023-01-18T17:03:07.856Z,2.70
2023-01-18T17:05:58.050Z,0.90
2023-01-18T17:08:46.949Z,1.83
2023-01-18T17:11:35.605Z,1.35
2023-01-18T17:14:24.702Z,1.15
2023-01-18T17:17:13.415Z,1.00
2023-01-18T17:20:02.128Z,1.48
2023-01-18T17:22:52.638Z,1.58
2023-01-18T17:25:41.651Z,2.45
2023-01-18T17:28:30.438Z,3.08
2023-01-18T17:31:19.067Z,2.55
2023-01-18T17:34:08.957Z,4.55
2023-01-18T17:36:58.640Z,7.90
2023-01-18T17:40:02.388Z,11.93
2023-01-18T17:42:57.936Z,18.80
2023-01-18T17:45:59.646Z,17.45
2023-01-18T17:48:49.258Z,22.25
2023-01-18T17:51:38.520Z,20.67
2023-01-18T17:54:28.492Z,21.55
2023-01-18T17:57:18.587Z,20.90
2023-01-18T18:00:09.169Z,23.00
2023-01-18T18:02:59.860Z,18.42
2023-01-18T18:05:50.583Z,20.30
2023-01-18T18:08:39.363Z,20.45
2023-01-18T18:11:28.019Z,19.45
2023-01-18T18:14:18.043Z,18.23
2023-01-18T18:17:07.738Z,18.60
2023-01-18T18:19:56.504Z,18.42
2023-01-18T18:22:45.152Z,18.92
2023-01-18T18:25:34.909Z,17.48
2023-01-18T18:28:24.451Z,16.20
2023-01-18T18:31:16.404Z,15.98
2023-01-18T18:34:05.071Z,16.00
2023-01-18T18:36:53.699Z,17.38
2023-01-18T18:39:42.692Z,15.55
2023-01-18T18:42:31.342Z,15.40
2023-01-18T18:45:20.171Z,13.60
2023-01-18T18:48:10.906Z,13.70
2023-01-18T18:50:59.487Z,14.50
2023-01-18T18:53:48.186Z,12.15
2023-01-18T18:56:36.940Z,12.88
2023-01-18T18:59:25.563Z,13.43
2023-01-18T19:02:16.343Z,11.98
2023-01-18T19:05:07.490Z,12.38
2023-01-18T19:07:56.194Z,11.32
2023-01-18T19:10:44.802Z,11.95
2023-01-18T19:13:33.439Z,11.43
2023-01-18T19:16:22.001Z,12.25
2023-01-18T19:19:12.401Z,10.75
2023-01-18T19:22:02.718Z,10.73
2023-01-18T19:24:51.420Z,10.85
2023-01-18T19:27:40.035Z,10.65
2023-01-18T19:30:30.323Z,40.30
2023-01-18T19:33:19.475Z,69.03
2023-01-18T19:36:10.032Z,123.60
2023-01-18T19:39:02.277Z,93.68
2023-01-18T19:41:51.210Z,98.20
2023-01-18T19:44:39.764Z,108.93
2023-01-18T19:47:28.458Z,116.22
2023-01-18T19:50:17.759Z,120.00
2023-01-18T19:53:06.645Z,130.88
2023-01-18T19:56:06.892Z,127.07
2023-01-18T19:58:56.240Z,130.80
2023-01-18T20:01:45.308Z,126.97
2023-01-18T20:04:34.298Z,123.60
2023-01-18T20:07:22.929Z,123.45
2023-01-18T20:10:12.830Z,125.35
2023-01-18T20:13:03.161Z,129.07
2023-01-18T20:15:54.665Z,121.47
2023-01-18T20:18:43.513Z,119.40
2023-01-18T20:21:32.173Z,110.20
2023-01-18T20:24:21.010Z,111.28
2023-01-18T20:27:16.420Z,110.22
2023-01-18T20:30:08.193Z,110.43
2023-01-18T20:32:56.805Z,104.43
2023-01-18T20:35:46.444Z,101.07
2023-01-18T20:38:35.762Z,104.32
2023-01-18T20:41:24.497Z,99.05
2023-01-18T20:44:13.315Z,90.63
2023-01-18T20:47:03.592Z,94.85
2023-01-18T20:49:52.288Z,43.75
2023-01-18T20:52:40.933Z,14.13
2023-01-18T20:55:29.590Z,9.73
2023-01-18T20:58:18.262Z,12.88
2023-01-18T21:01:07.484Z,25.83
2023-01-18T21:03:57.564Z,26.88
2023-01-18T21:06:46.618Z,24.77
2023-01-18T21:09:35.285Z,23.77
2023-01-18T21:12:23.891Z,23.38
2023-01-18T21:15:13.375Z,23.75
2023-01-18T21:18:04.110Z,23.52
2023-01-18T21:20:54.872Z,22.90
2023-01-18T21:23:43.473Z,22.73
2023-01-18T21:26:32.165Z,23.55
2023-01-18T21:29:20.958Z,23.08
2023-01-18T21:32:09.797Z,21.17
2023-01-18T21:34:58.349Z,22.30
2023-01-18T21:37:48.360Z,21.88
2023-01-18T21:40:36.984Z,23.00
2023-01-18T21:43:43.443Z,21.58
2023-01-18T21:46:32.075Z,21.33
2023-01-18T21:49:57.621Z,21.15
2023-01-18T21:53:06.362Z,19.17
2023-01-18T21:55:54.941Z,19.60
2023-01-18T21:58:57.857Z,19.08
2023-01-18T22:01:47.916Z,20.08
2023-01-18T22:04:54.202Z,18.23
2023-01-18T22:07:43.519Z,18.80
2023-01-18T22:10:33.451Z,18.17
2023-01-18T22:13:22.077Z,18.38
2023-01-18T22:16:10.706Z,18.15
2023-01-18T22:18:59.854Z,18.52
2023-01-18T22:21:49.202Z,16.98
2023-01-18T22:24:37.758Z,17.02
2023-01-18T22:27:27.839Z,17.05
2023-01-18T22:30:16.885Z,16.85
2023-01-18T22:33:05.611Z,16.27
2023-01-18T22:35:59.131Z,15.85
2023-01-18T22:38:47.771Z,16.20
2023-01-18T22:41:36.372Z,14.82
2023-01-18T22:44:26.427Z,15.02
2023-01-18T22:47:14.939Z,16.02
2023-01-18T22:50:03.572Z,14.23
2023-01-18T22:52:52.167Z,14.95
2023-01-18T22:55:43.712Z,14.02
2023-01-18T22:58:32.410Z,13.98
2023-01-18T23:01:24.939Z,14.18
2023-01-18T23:04:13.549Z,13.52
2023-01-18T23:07:02.168Z,12.77
2023-01-18T23:09:51.454Z,13.13
2023-01-18T23:12:40.083Z,11.90
2023-01-18T23:15:46.469Z,13.15
2023-01-18T23:18:36.471Z,12.00
2023-01-18T23:21:25.101Z,12.30
2023-01-18T23:24:13.900Z,11.48
2023-01-18T23:27:02.684Z,11.73
2023-01-18T23:29:58.602Z,12.68
2023-01-18T23:32:47.343Z,11.30
2023-01-18T23:35:37.387Z,10.65
2023-01-18T23:38:26.000Z,11.65
2023-01-18T23:41:32.532Z,10.95
2023-01-18T23:44:38.756Z,11.80
2023-01-18T23:47:44.800Z,9.70
2023-01-18T23:50:51.060Z,10.55
2023-01-18T23:53:58.603Z,10.38
2023-01-18T23:56:48.500Z,10.48
2023-01-18T23:59:37.827Z,9.82
